sensor_id;sensor_type;location;lat;lon;timestamp;temperature;humidity
6843;DHT22;3460;52.028;8.916;2022-11-02T00:02:17;12.50;99.90
6843;DHT22;3460;52.028;8.916;2022-11-02T00:04:44;12.60;99.90
6843;DHT22;3460;52.028;8.916;2022-11-02T00:07:11;12.60;99.90
6843;DHT22;3460;52.028;8.916;2022-11-02T00:09:39;12.70;99.90
6843;DHT22;3460;52.028;8.916;2022-11-02T00:12:06;12.60;99.90
6843;DHT22;3460;52.028;8.916;2022-11-02T00:14:33;12.60;99.90
6843;DHT22;3460;52.028;8.916;2022-11-02T00:17:00;12.60;99.90
6843;DHT22;3460;52.028;8.916;2022-11-02T00:19:27;12.70;99.90
6843;DHT22;3460;52.028;8.916;2022-11-02T00:21:54;12.70;99.90
6843;DHT22;3460;52.028;8.916;2022-11-02T00:24:23;12.70;99.90
6843;DHT22;3460;52.028;8.916;2022-11-02T00:26:51;12.70;99.90
6843;DHT22;3460;52.028;8.916;2022-11-02T00:29:18;12.80;99.90
6843;DHT22;3460;52.028;8.916;2022-11-02T00:31:46;12.80;99.90
6843;DHT22;3460;52.028;8.916;2022-11-02T00:34:12;12.80;99.90
6843;DHT22;3460;52.028;8.916;2022-11-02T00:36:39;12.80;99.90
6843;DHT22;3460;52.028;8.916;2022-11-02T00:39:06;12.80;99.90
6843;DHT22;3460;52.028;8.916;2022-11-02T00:41:32;12.80;99.90
6843;DHT22;3460;52.028;8.916;2022-11-02T00:44:00;12.80;99.90
6843;DHT22;3460;52.028;8.916;2022-11-02T00:46:27;12.70;99.90
6843;DHT22;3460;52.028;8.916;2022-11-02T00:48:54;12.70;99.90
6843;DHT22;3460;52.028;8.916;2022-11-02T00:51:20;12.70;99.90
6843;DHT22;3460;52.028;8.916;2022-11-02T00:53:47;12.60;99.90
6843;DHT22;3460;52.028;8.916;2022-11-02T00:56:14;12.60;99.90
6843;DHT22;3460;52.028;8.916;2022-11-02T00:58:40;12.60;99.90
6843;DHT22;3460;52.028;8.916;2022-11-02T01:01:08;12.60;99.90
6843;DHT22;3460;52.028;8.916;2022-11-02T01:03:35;12.60;99.90
6843;DHT22;3460;52.028;8.916;2022-11-02T01:06:07;12.50;99.90
6843;DHT22;3460;52.028;8.916;2022-11-02T01:08:34;12.50;99.90
6843;DHT22;3460;52.028;8.916;2022-11-02T01:11:09;12.50;99.90
6843;DHT22;3460;52.028;8.916;2022-11-02T01:13:35;12.50;99.90
6843;DHT22;3460;52.028;8.916;2022-11-02T01:16:02;12.50;99.90
6843;DHT22;3460;52.028;8.916;2022-11-02T01:18:30;12.50;99.90
6843;DHT22;3460;52.028;8.916;2022-11-02T01:20:58;12.50;99.90
6843;DHT22;3460;52.028;8.916;2022-11-02T01:23:25;12.50;99.90
6843;DHT22;3460;52.028;8.916;2022-11-02T01:25:52;12.50;99.90
6843;DHT22;3460;52.028;8.916;2022-11-02T01:28:19;12.50;99.90
6843;DHT22;3460;52.028;8.916;2022-11-02T01:30:46;12.40;99.90
6843;DHT22;3460;52.028;8.916;2022-11-02T01:33:13;12.40;99.90
6843;DHT22;3460;52.028;8.916;2022-11-02T01:35:42;12.40;99.90
6843;DHT22;3460;52.028;8.916;2022-11-02T01:38:09;12.40;99.90
6843;DHT22;3460;52.028;8.916;2022-11-02T01:40:36;12.40;99.90
6843;DHT22;3460;52.028;8.916;2022-11-02T01:43:24;12.40;99.90
6843;DHT22;3460;52.028;8.916;2022-11-02T01:45:54;12.50;99.90
6843;DHT22;3460;52.028;8.916;2022-11-02T01:48:27;12.50;99.90
6843;DHT22;3460;52.028;8.916;2022-11-02T01:50:58;12.40;99.90
6843;DHT22;3460;52.028;8.916;2022-11-02T01:53:25;12.50;99.90
6843;DHT22;3460;52.028;8.916;2022-11-02T01:55:53;12.50;99.90
6843;DHT22;3460;52.028;8.916;2022-11-02T01:58:20;12.50;99.90
6843;DHT22;3460;52.028;8.916;2022-11-02T02:00:47;12.50;99.90
6843;DHT22;3460;52.028;8.916;2022-11-02T02:03:15;12.40;99.90
6843;DHT22;3460;52.028;8.916;2022-11-02T02:05:45;12.50;99.90
6843;DHT22;3460;52.028;8.916;2022-11-02T02:08:17;12.50;99.90
6843;DHT22;3460;52.028;8.916;2022-11-02T02:10:44;12.50;99.90
6843;DHT22;3460;52.028;8.916;2022-11-02T02:13:12;12.40;99.90
6843;DHT22;3460;52.028;8.916;2022-11-02T02:15:42;12.40;99.90
6843;DHT22;3460;52.028;8.916;2022-11-02T02:18:19;12.40;99.90
6843;DHT22;3460;52.028;8.916;2022-11-02T02:21:04;12.20;99.90
6843;DHT22;3460;52.028;8.916;2022-11-02T02:23:58;12.10;99.90
6843;DHT22;3460;52.028;8.916;2022-11-02T02:26:58;12.00;99.90
6843;DHT22;3460;52.028;8.916;2022-11-02T02:29:32;11.90;99.90
6843;DHT22;3460;52.028;8.916;2022-11-02T02:32:05;11.90;99.90
6843;DHT22;3460;52.028;8.916;2022-11-02T02:34:37;11.80;99.90
6843;DHT22;3460;52.028;8.916;2022-11-02T02:37:11;11.70;99.90
6843;DHT22;3460;52.028;8.916;2022-11-02T02:39:41;11.70;99.90
6843;DHT22;3460;52.028;8.916;2022-11-02T02:42:14;11.70;99.90
6843;DHT22;3460;52.028;8.916;2022-11-02T02:44:50;11.70;99.90
6843;DHT22;3460;52.028;8.916;2022-11-02T02:47:22;11.60;99.90
6843;DHT22;3460;52.028;8.916;2022-11-02T02:49:54;11.60;99.90
6843;DHT22;3460;52.028;8.916;2022-11-02T02:52:23;11.60;99.90
6843;DHT22;3460;52.028;8.916;2022-11-02T02:54:55;11.70;99.90
6843;DHT22;3460;52.028;8.916;2022-11-02T02:57:26;11.70;99.90
6843;DHT22;3460;52.028;8.916;2022-11-02T02:59:55;11.70;99.90
6843;DHT22;3460;52.028;8.916;2022-11-02T03:02:24;11.70;99.90
6843;DHT22;3460;52.028;8.916;2022-11-02T03:04:52;11.70;99.90
6843;DHT22;3460;52.028;8.916;2022-11-02T03:07:21;11.80;99.90
6843;DHT22;3460;52.028;8.916;2022-11-02T03:09:53;11.80;99.90
6843;DHT22;3460;52.028;8.916;2022-11-02T03:12:32;11.80;99.90
6843;DHT22;3460;52.028;8.916;2022-11-02T03:15:10;11.90;99.90
6843;DHT22;3460;52.028;8.916;2022-11-02T03:17:45;11.80;99.90
6843;DHT22;3460;52.028;8.916;2022-11-02T03:20:21;11.70;99.90
6843;DHT22;3460;52.028;8.916;2022-11-02T03:22:55;11.60;99.90
6843;DHT22;3460;52.028;8.916;2022-11-02T03:25:28;11.60;99.90
6843;DHT22;3460;52.028;8.916;2022-11-02T03:28:04;11.60;99.90
6843;DHT22;3460;52.028;8.916;2022-11-02T03:30:39;11.60;99.90
6843;DHT22;3460;52.028;8.916;2022-11-02T03:33:13;11.50;99.90
6843;DHT22;3460;52.028;8.916;2022-11-02T03:35:47;11.50;99.90
6843;DHT22;3460;52.028;8.916;2022-11-02T03:38:20;11.40;99.90
6843;DHT22;3460;52.028;8.916;2022-11-02T03:40:48;11.40;99.90
6843;DHT22;3460;52.028;8.916;2022-11-02T03:43:17;11.30;99.90
6843;DHT22;3460;52.028;8.916;2022-11-02T03:45:51;11.30;99.90
6843;DHT22;3460;52.028;8.916;2022-11-02T03:48:21;11.20;99.90
6843;DHT22;3460;52.028;8.916;2022-11-02T03:50:51;11.20;99.90
6843;DHT22;3460;52.028;8.916;2022-11-02T03:53:23;11.20;99.90
6843;DHT22;3460;52.028;8.916;2022-11-02T03:55:58;11.20;99.90
6843;DHT22;3460;52.028;8.916;2022-11-02T03:58:28;11.30;99.90
6843;DHT22;3460;52.028;8.916;2022-11-02T04:00:58;11.40;99.90
6843;DHT22;3460;52.028;8.916;2022-11-02T04:03:29;11.40;99.90
6843;DHT22;3460;52.028;8.916;2022-11-02T04:05:58;11.60;99.90
6843;DHT22;3460;52.028;8.916;2022-11-02T04:08:30;11.70;99.90
6843;DHT22;3460;52.028;8.916;2022-11-02T04:10:58;11.80;99.90
6843;DHT22;3460;52.028;8.916;2022-11-02T04:13:42;11.90;99.90
6843;DHT22;3460;52.028;8.916;2022-11-02T04:16:30;11.90;99.90
6843;DHT22;3460;52.028;8.916;2022-11-02T04:18:57;12.00;99.90
6843;DHT22;3460;52.028;8.916;2022-11-02T04:21:41;12.10;99.90
6843;DHT22;3460;52.028;8.916;2022-11-02T04:24:28;12.10;99.90
6843;DHT22;3460;52.028;8.916;2022-11-02T04:27:12;12.00;99.90
6843;DHT22;3460;52.028;8.916;2022-11-02T04:29:39;12.10;99.90
6843;DHT22;3460;52.028;8.916;2022-11-02T04:32:07;12.00;99.90
6843;DHT22;3460;52.028;8.916;2022-11-02T04:34:33;12.10;99.90
6843;DHT22;3460;52.028;8.916;2022-11-02T04:36:59;12.10;99.90
6843;DHT22;3460;52.028;8.916;2022-11-02T04:39:26;12.10;99.90
6843;DHT22;3460;52.028;8.916;2022-11-02T04:41:51;12.00;99.90
6843;DHT22;3460;52.028;8.916;2022-11-02T04:44:18;12.00;99.90
6843;DHT22;3460;52.028;8.916;2022-11-02T04:46:45;12.10;99.90
6843;DHT22;3460;52.028;8.916;2022-11-02T04:49:13;12.10;99.90
6843;DHT22;3460;52.028;8.916;2022-11-02T04:51:39;12.20;99.90
6843;DHT22;3460;52.028;8.916;2022-11-02T04:54:06;12.10;99.90
6843;DHT22;3460;52.028;8.916;2022-11-02T04:56:33;12.10;99.90
6843;DHT22;3460;52.028;8.916;2022-11-02T04:59:00;12.20;99.90
6843;DHT22;3460;52.028;8.916;2022-11-02T05:01:28;12.20;99.90
6843;DHT22;3460;52.028;8.916;2022-11-02T05:03:55;12.20;99.90
6843;DHT22;3460;52.028;8.916;2022-11-02T05:06:24;12.20;99.90
6843;DHT22;3460;52.028;8.916;2022-11-02T05:08:51;12.20;99.90
6843;DHT22;3460;52.028;8.916;2022-11-02T05:11:18;12.30;99.90
6843;DHT22;3460;52.028;8.916;2022-11-02T05:13:45;12.30;99.90
6843;DHT22;3460;52.028;8.916;2022-11-02T05:16:13;12.30;99.90
6843;DHT22;3460;52.028;8.916;2022-11-02T05:18:40;12.30;99.90
6843;DHT22;3460;52.028;8.916;2022-11-02T05:21:09;12.20;99.90
6843;DHT22;3460;52.028;8.916;2022-11-02T05:23:37;12.20;99.90
6843;DHT22;3460;52.028;8.916;2022-11-02T05:26:06;12.20;99.90
6843;DHT22;3460;52.028;8.916;2022-11-02T05:28:33;12.20;99.90
6843;DHT22;3460;52.028;8.916;2022-11-02T05:31:02;12.20;99.90
6843;DHT22;3460;52.028;8.916;2022-11-02T05:33:29;12.20;99.90
6843;DHT22;3460;52.028;8.916;2022-11-02T05:35:57;12.20;99.90
6843;DHT22;3460;52.028;8.916;2022-11-02T05:38:25;12.20;99.90
6843;DHT22;3460;52.028;8.916;2022-11-02T05:41:01;12.30;99.90
6843;DHT22;3460;52.028;8.916;2022-11-02T05:43:28;12.30;99.90
6843;DHT22;3460;52.028;8.916;2022-11-02T05:45:57;12.30;99.90
6843;DHT22;3460;52.028;8.916;2022-11-02T05:48:25;12.20;99.90
6843;DHT22;3460;52.028;8.916;2022-11-02T05:50:54;12.40;99.90
6843;DHT22;3460;52.028;8.916;2022-11-02T05:53:22;12.40;99.90
6843;DHT22;3460;52.028;8.916;2022-11-02T05:55:49;12.40;99.90
6843;DHT22;3460;52.028;8.916;2022-11-02T05:58:17;12.40;99.90
6843;DHT22;3460;52.028;8.916;2022-11-02T06:00:43;12.40;99.90
6843;DHT22;3460;52.028;8.916;2022-11-02T06:03:10;12.30;99.90
6843;DHT22;3460;52.028;8.916;2022-11-02T06:05:37;12.30;99.90
6843;DHT22;3460;52.028;8.916;2022-11-02T06:08:04;12.30;99.90
6843;DHT22;3460;52.028;8.916;2022-11-02T06:10:30;12.30;99.90
6843;DHT22;3460;52.028;8.916;2022-11-02T06:12:58;12.30;99.90
6843;DHT22;3460;52.028;8.916;2022-11-02T06:15:28;12.30;99.90
6843;DHT22;3460;52.028;8.916;2022-11-02T06:17:54;12.30;99.90
6843;DHT22;3460;52.028;8.916;2022-11-02T06:20:21;12.30;99.90
6843;DHT22;3460;52.028;8.916;2022-11-02T06:23:04;12.30;99.90
6843;DHT22;3460;52.028;8.916;2022-11-02T06:25:32;12.30;99.90
6843;DHT22;3460;52.028;8.916;2022-11-02T06:28:04;12.30;99.90
6843;DHT22;3460;52.028;8.916;2022-11-02T06:30:37;12.40;99.90
6843;DHT22;3460;52.028;8.916;2022-11-02T06:33:04;12.40;99.90
6843;DHT22;3460;52.028;8.916;2022-11-02T06:35:33;12.30;99.90
6843;DHT22;3460;52.028;8.916;2022-11-02T06:38:00;12.30;99.90
6843;DHT22;3460;52.028;8.916;2022-11-02T06:40:28;12.30;99.90
6843;DHT22;3460;52.028;8.916;2022-11-02T06:42:56;12.40;99.90
6843;DHT22;3460;52.028;8.916;2022-11-02T06:45:23;12.30;99.90
6843;DHT22;3460;52.028;8.916;2022-11-02T06:47:51;12.30;99.90
6843;DHT22;3460;52.028;8.916;2022-11-02T06:50:18;12.40;99.90
6843;DHT22;3460;52.028;8.916;2022-11-02T06:52:46;12.40;99.90
6843;DHT22;3460;52.028;8.916;2022-11-02T06:55:14;12.50;99.90
6843;DHT22;3460;52.028;8.916;2022-11-02T06:57:42;12.60;99.90
6843;DHT22;3460;52.028;8.916;2022-11-02T07:00:11;12.60;99.90
6843;DHT22;3460;52.028;8.916;2022-11-02T07:02:38;12.60;99.90
6843;DHT22;3460;52.028;8.916;2022-11-02T07:05:07;12.60;99.90
6843;DHT22;3460;52.028;8.916;2022-11-02T07:07:34;12.60;99.90
6843;DHT22;3460;52.028;8.916;2022-11-02T07:10:00;12.60;99.90
6843;DHT22;3460;52.028;8.916;2022-11-02T07:12:27;12.60;99.90
6843;DHT22;3460;52.028;8.916;2022-11-02T07:14:54;12.60;99.90
6843;DHT22;3460;52.028;8.916;2022-11-02T07:17:20;12.60;99.90
6843;DHT22;3460;52.028;8.916;2022-11-02T07:19:47;12.60;99.90
6843;DHT22;3460;52.028;8.916;2022-11-02T07:22:15;12.50;99.90
6843;DHT22;3460;52.028;8.916;2022-11-02T07:24:42;12.50;99.90
6843;DHT22;3460;52.028;8.916;2022-11-02T07:27:09;12.60;99.90
6843;DHT22;3460;52.028;8.916;2022-11-02T07:29:35;12.50;99.90
6843;DHT22;3460;52.028;8.916;2022-11-02T07:32:02;12.60;99.90
6843;DHT22;3460;52.028;8.916;2022-11-02T07:34:32;12.60;99.90
6843;DHT22;3460;52.028;8.916;2022-11-02T07:36:58;12.70;99.90
6843;DHT22;3460;52.028;8.916;2022-11-02T07:39:26;12.70;99.90
6843;DHT22;3460;52.028;8.916;2022-11-02T07:41:53;12.60;99.90
6843;DHT22;3460;52.028;8.916;2022-11-02T07:44:20;12.70;99.90
6843;DHT22;3460;52.028;8.916;2022-11-02T07:46:46;12.70;99.90
6843;DHT22;3460;52.028;8.916;2022-11-02T07:49:13;12.70;99.90
6843;DHT22;3460;52.028;8.916;2022-11-02T07:51:40;12.70;99.90
6843;DHT22;3460;52.028;8.916;2022-11-02T07:54:07;12.70;99.90
6843;DHT22;3460;52.028;8.916;2022-11-02T07:56:36;12.70;99.90
6843;DHT22;3460;52.028;8.916;2022-11-02T07:59:02;12.80;99.90
6843;DHT22;3460;52.028;8.916;2022-11-02T08:01:29;12.80;99.90
6843;DHT22;3460;52.028;8.916;2022-11-02T08:03:57;12.90;99.90
6843;DHT22;3460;52.028;8.916;2022-11-02T08:06:23;12.90;99.90
6843;DHT22;3460;52.028;8.916;2022-11-02T08:08:50;13.00;99.90
6843;DHT22;3460;52.028;8.916;2022-11-02T08:11:17;13.00;99.90
6843;DHT22;3460;52.028;8.916;2022-11-02T08:13:45;13.00;99.90
6843;DHT22;3460;52.028;8.916;2022-11-02T08:16:12;13.00;99.90
6843;DHT22;3460;52.028;8.916;2022-11-02T08:18:39;13.00;99.90
6843;DHT22;3460;52.028;8.916;2022-11-02T08:21:06;13.00;99.90
6843;DHT22;3460;52.028;8.916;2022-11-02T08:23:33;13.00;99.90
6843;DHT22;3460;52.028;8.916;2022-11-02T08:25:59;13.10;99.90
6843;DHT22;3460;52.028;8.916;2022-11-02T08:28:28;13.10;99.90
6843;DHT22;3460;52.028;8.916;2022-11-02T08:30:58;13.20;99.90
6843;DHT22;3460;52.028;8.916;2022-11-02T08:33:25;13.20;99.90
6843;DHT22;3460;52.028;8.916;2022-11-02T08:35:52;13.10;99.90
6843;DHT22;3460;52.028;8.916;2022-11-02T08:38:18;13.10;99.90
6843;DHT22;3460;52.028;8.916;2022-11-02T08:40:47;13.10;99.90
6843;DHT22;3460;52.028;8.916;2022-11-02T08:43:14;13.10;99.90
6843;DHT22;3460;52.028;8.916;2022-11-02T08:45:42;13.20;99.90
6843;DHT22;3460;52.028;8.916;2022-11-02T08:48:11;13.20;99.90
6843;DHT22;3460;52.028;8.916;2022-11-02T08:50:38;13.20;99.90
6843;DHT22;3460;52.028;8.916;2022-11-02T08:53:05;13.20;99.90
6843;DHT22;3460;52.028;8.916;2022-11-02T08:55:32;13.20;99.90
6843;DHT22;3460;52.028;8.916;2022-11-02T08:57:59;13.20;99.90
6843;DHT22;3460;52.028;8.916;2022-11-02T09:00:27;13.20;99.90
6843;DHT22;3460;52.028;8.916;2022-11-02T09:02:59;13.30;99.90
6843;DHT22;3460;52.028;8.916;2022-11-02T09:05:28;13.30;99.90
6843;DHT22;3460;52.028;8.916;2022-11-02T09:07:56;13.30;99.90
6843;DHT22;3460;52.028;8.916;2022-11-02T09:10:24;13.30;99.90
6843;DHT22;3460;52.028;8.916;2022-11-02T09:12:51;13.30;99.90
6843;DHT22;3460;52.028;8.916;2022-11-02T09:15:17;13.30;99.90
6843;DHT22;3460;52.028;8.916;2022-11-02T09:17:46;13.30;99.90
6843;DHT22;3460;52.028;8.916;2022-11-02T09:20:13;13.30;99.90
6843;DHT22;3460;52.028;8.916;2022-11-02T09:22:42;13.30;99.90
6843;DHT22;3460;52.028;8.916;2022-11-02T09:25:09;13.30;99.90
6843;DHT22;3460;52.028;8.916;2022-11-02T09:27:36;13.40;99.90
6843;DHT22;3460;52.028;8.916;2022-11-02T09:30:04;13.40;99.90
6843;DHT22;3460;52.028;8.916;2022-11-02T09:32:31;13.50;99.90
6843;DHT22;3460;52.028;8.916;2022-11-02T09:34:58;13.60;99.90
6843;DHT22;3460;52.028;8.916;2022-11-02T09:37:25;13.70;99.90
6843;DHT22;3460;52.028;8.916;2022-11-02T09:39:54;13.80;99.90
6843;DHT22;3460;52.028;8.916;2022-11-02T09:42:24;13.90;99.90
6843;DHT22;3460;52.028;8.916;2022-11-02T09:44:57;14.00;99.90
6843;DHT22;3460;52.028;8.916;2022-11-02T09:47:25;14.10;99.90
6843;DHT22;3460;52.028;8.916;2022-11-02T09:49:54;14.20;99.90
6843;DHT22;3460;52.028;8.916;2022-11-02T09:52:26;14.20;99.90
6843;DHT22;3460;52.028;8.916;2022-11-02T09:54:55;14.30;99.90
6843;DHT22;3460;52.028;8.916;2022-11-02T09:57:27;14.30;99.90
6843;DHT22;3460;52.028;8.916;2022-11-02T09:59:54;14.30;99.90
6843;DHT22;3460;52.028;8.916;2022-11-02T10:02:29;14.30;99.90
6843;DHT22;3460;52.028;8.916;2022-11-02T10:05:11;14.40;99.90
6843;DHT22;3460;52.028;8.916;2022-11-02T10:10:44;14.30;99.90
6843;DHT22;3460;52.028;8.916;2022-11-02T10:13:22;14.40;99.90
6843;DHT22;3460;52.028;8.916;2022-11-02T10:15:54;14.30;99.90
6843;DHT22;3460;52.028;8.916;2022-11-02T10:18:23;14.30;99.90
6843;DHT22;3460;52.028;8.916;2022-11-02T10:20:54;14.20;99.90
6843;DHT22;3460;52.028;8.916;2022-11-02T10:23:25;14.20;99.90
6843;DHT22;3460;52.028;8.916;2022-11-02T10:25:55;14.20;99.90
6843;DHT22;3460;52.028;8.916;2022-11-02T10:28:25;14.10;99.90
6843;DHT22;3460;52.028;8.916;2022-11-02T10:30:53;14.10;99.90
6843;DHT22;3460;52.028;8.916;2022-11-02T10:33:27;14.10;99.90
6843;DHT22;3460;52.028;8.916;2022-11-02T10:36:08;14.10;99.90
6843;DHT22;3460;52.028;8.916;2022-11-02T10:38:46;14.00;99.90
6843;DHT22;3460;52.028;8.916;2022-11-02T10:41:31;13.90;99.90
6843;DHT22;3460;52.028;8.916;2022-11-02T10:44:15;14.00;99.90
6843;DHT22;3460;52.028;8.916;2022-11-02T10:46:53;14.00;99.90
6843;DHT22;3460;52.028;8.916;2022-11-02T10:52:20;14.20;99.90
6843;DHT22;3460;52.028;8.916;2022-11-02T10:54:49;14.20;99.90
6843;DHT22;3460;52.028;8.916;2022-11-02T10:57:21;14.20;99.90
6843;DHT22;3460;52.028;8.916;2022-11-02T11:00:26;14.30;99.90
6843;DHT22;3460;52.028;8.916;2022-11-02T11:03:05;14.30;99.90
6843;DHT22;3460;52.028;8.916;2022-11-02T11:05:33;14.30;99.90
6843;DHT22;3460;52.028;8.916;2022-11-02T11:08:01;14.30;99.90
6843;DHT22;3460;52.028;8.916;2022-11-02T11:10:34;14.40;99.90
6843;DHT22;3460;52.028;8.916;2022-11-02T11:13:04;14.40;99.90
6843;DHT22;3460;52.028;8.916;2022-11-02T11:15:32;14.50;99.90
6843;DHT22;3460;52.028;8.916;2022-11-02T11:18:09;14.50;99.90
6843;DHT22;3460;52.028;8.916;2022-11-02T11:20:39;14.40;99.90
6843;DHT22;3460;52.028;8.916;2022-11-02T11:23:19;14.40;99.90
6843;DHT22;3460;52.028;8.916;2022-11-02T11:25:54;14.20;99.90
6843;DHT22;3460;52.028;8.916;2022-11-02T11:28:25;14.20;99.90
6843;DHT22;3460;52.028;8.916;2022-11-02T11:31:05;14.20;99.90
6843;DHT22;3460;52.028;8.916;2022-11-02T11:33:40;14.10;99.90
6843;DHT22;3460;52.028;8.916;2022-11-02T11:36:08;14.10;99.90
6843;DHT22;3460;52.028;8.916;2022-11-02T11:38:36;14.00;99.90
6843;DHT22;3460;52.028;8.916;2022-11-02T11:41:11;13.90;99.90
6843;DHT22;3460;52.028;8.916;2022-11-02T11:43:40;13.90;99.90
6843;DHT22;3460;52.028;8.916;2022-11-02T11:46:07;14.00;99.90
6843;DHT22;3460;52.028;8.916;2022-11-02T11:48:38;14.10;99.90
6843;DHT22;3460;52.028;8.916;2022-11-02T11:51:24;14.10;99.90
6843;DHT22;3460;52.028;8.916;2022-11-02T11:54:18;14.30;99.90
6843;DHT22;3460;52.028;8.916;2022-11-02T11:56:45;14.50;99.90
6843;DHT22;3460;52.028;8.916;2022-11-02T11:59:25;14.60;99.90
6843;DHT22;3460;52.028;8.916;2022-11-02T12:01:57;14.50;99.90
6843;DHT22;3460;52.028;8.916;2022-11-02T12:04:32;14.40;99.90
6843;DHT22;3460;52.028;8.916;2022-11-02T12:07:09;14.40;99.90
6843;DHT22;3460;52.028;8.916;2022-11-02T12:09:47;14.30;99.90
6843;DHT22;3460;52.028;8.916;2022-11-02T12:12:23;14.10;99.90
6843;DHT22;3460;52.028;8.916;2022-11-02T12:14:57;14.10;99.90
6843;DHT22;3460;52.028;8.916;2022-11-02T12:17:43;13.90;99.90
6843;DHT22;3460;52.028;8.916;2022-11-02T12:20:25;13.90;99.90
6843;DHT22;3460;52.028;8.916;2022-11-02T12:23:02;13.90;99.90
6843;DHT22;3460;52.028;8.916;2022-11-02T12:25:46;13.90;99.90
6843;DHT22;3460;52.028;8.916;2022-11-02T12:28:23;13.90;99.90
6843;DHT22;3460;52.028;8.916;2022-11-02T12:31:00;14.00;99.90
6843;DHT22;3460;52.028;8.916;2022-11-02T12:33:47;14.00;99.90
6843;DHT22;3460;52.028;8.916;2022-11-02T12:36:28;14.10;99.90
6843;DHT22;3460;52.028;8.916;2022-11-02T12:39:05;14.20;99.90
6843;DHT22;3460;52.028;8.916;2022-11-02T12:41:47;14.40;99.90
6843;DHT22;3460;52.028;8.916;2022-11-02T12:44:39;14.40;99.90
6843;DHT22;3460;52.028;8.916;2022-11-02T12:47:19;14.50;99.90
6843;DHT22;3460;52.028;8.916;2022-11-02T12:49:51;14.50;99.90
6843;DHT22;3460;52.028;8.916;2022-11-02T12:52:31;14.50;99.90
6843;DHT22;3460;52.028;8.916;2022-11-02T12:55:02;14.50;99.90
6843;DHT22;3460;52.028;8.916;2022-11-02T12:57:33;14.40;99.90
6843;DHT22;3460;52.028;8.916;2022-11-02T13:00:05;14.40;99.90
6843;DHT22;3460;52.028;8.916;2022-11-02T13:02:40;14.30;99.90
6843;DHT22;3460;52.028;8.916;2022-11-02T13:05:13;14.20;99.90
6843;DHT22;3460;52.028;8.916;2022-11-02T13:07:44;14.10;99.90
6843;DHT22;3460;52.028;8.916;2022-11-02T13:10:16;14.20;99.90
6843;DHT22;3460;52.028;8.916;2022-11-02T13:12:46;14.20;99.90
6843;DHT22;3460;52.028;8.916;2022-11-02T13:15:16;14.10;99.90
6843;DHT22;3460;52.028;8.916;2022-11-02T13:17:48;14.20;99.90
6843;DHT22;3460;52.028;8.916;2022-11-02T13:20:18;14.30;99.90
6843;DHT22;3460;52.028;8.916;2022-11-02T13:22:53;14.30;99.90
6843;DHT22;3460;52.028;8.916;2022-11-02T13:25:25;14.30;99.90
6843;DHT22;3460;52.028;8.916;2022-11-02T13:27:55;14.30;99.90
6843;DHT22;3460;52.028;8.916;2022-11-02T13:30:22;14.30;99.90
6843;DHT22;3460;52.028;8.916;2022-11-02T13:32:55;14.30;99.90
6843;DHT22;3460;52.028;8.916;2022-11-02T13:35:27;14.40;99.90
6843;DHT22;3460;52.028;8.916;2022-11-02T13:38:02;14.30;99.90
6843;DHT22;3460;52.028;8.916;2022-11-02T13:40:32;14.20;99.90
6843;DHT22;3460;52.028;8.916;2022-11-02T13:43:23;14.10;99.90
6843;DHT22;3460;52.028;8.916;2022-11-02T13:46:22;14.20;99.90
6843;DHT22;3460;52.028;8.916;2022-11-02T13:49:00;14.20;99.90
6843;DHT22;3460;52.028;8.916;2022-11-02T13:51:33;14.30;99.90
6843;DHT22;3460;52.028;8.916;2022-11-02T13:54:04;14.20;99.90
6843;DHT22;3460;52.028;8.916;2022-11-02T13:56:34;14.30;99.90
6843;DHT22;3460;52.028;8.916;2022-11-02T13:59:03;14.20;99.90
6843;DHT22;3460;52.028;8.916;2022-11-02T14:01:33;14.30;99.90
6843;DHT22;3460;52.028;8.916;2022-11-02T14:04:05;14.30;99.90
6843;DHT22;3460;52.028;8.916;2022-11-02T14:06:43;14.30;99.90
6843;DHT22;3460;52.028;8.916;2022-11-02T14:09:20;14.30;99.90
6843;DHT22;3460;52.028;8.916;2022-11-02T14:11:48;14.30;99.90
6843;DHT22;3460;52.028;8.916;2022-11-02T14:14:23;14.30;99.90
6843;DHT22;3460;52.028;8.916;2022-11-02T14:16:57;14.20;99.90
6843;DHT22;3460;52.028;8.916;2022-11-02T14:19:30;14.30;99.90
6843;DHT22;3460;52.028;8.916;2022-11-02T14:22:11;14.20;99.90
6843;DHT22;3460;52.028;8.916;2022-11-02T14:25:06;14.10;99.90
6843;DHT22;3460;52.028;8.916;2022-11-02T14:27:33;14.10;99.90
6843;DHT22;3460;52.028;8.916;2022-11-02T14:30:01;14.20;99.90
6843;DHT22;3460;52.028;8.916;2022-11-02T14:32:39;14.10;99.90
6843;DHT22;3460;52.028;8.916;2022-11-02T14:35:36;14.10;99.90
6843;DHT22;3460;52.028;8.916;2022-11-02T14:41:11;14.10;99.90
6843;DHT22;3460;52.028;8.916;2022-11-02T14:44:00;14.10;99.90
6843;DHT22;3460;52.028;8.916;2022-11-02T14:46:44;14.00;99.90
6843;DHT22;3460;52.028;8.916;2022-11-02T14:49:17;13.90;99.90
6843;DHT22;3460;52.028;8.916;2022-11-02T14:51:58;13.90;99.90
6843;DHT22;3460;52.028;8.916;2022-11-02T14:54:33;14.00;99.90
6843;DHT22;3460;52.028;8.916;2022-11-02T14:57:04;13.90;99.90
6843;DHT22;3460;52.028;8.916;2022-11-02T14:59:33;13.90;99.90
6843;DHT22;3460;52.028;8.916;2022-11-02T15:02:02;13.90;99.90
6843;DHT22;3460;52.028;8.916;2022-11-02T15:04:32;13.90;99.90
6843;DHT22;3460;52.028;8.916;2022-11-02T15:07:03;13.90;99.90
6843;DHT22;3460;52.028;8.916;2022-11-02T15:09:49;13.80;99.90
6843;DHT22;3460;52.028;8.916;2022-11-02T15:12:29;13.70;99.90
6843;DHT22;3460;52.028;8.916;2022-11-02T15:15:30;13.70;99.90
6843;DHT22;3460;52.028;8.916;2022-11-02T15:18:12;13.60;99.90
6843;DHT22;3460;52.028;8.916;2022-11-02T15:20:41;13.60;99.90
6843;DHT22;3460;52.028;8.916;2022-11-02T15:23:24;13.50;99.90
6843;DHT22;3460;52.028;8.916;2022-11-02T15:25:52;13.40;99.90
6843;DHT22;3460;52.028;8.916;2022-11-02T15:28:23;13.30;99.90
6843;DHT22;3460;52.028;8.916;2022-11-02T15:30:51;13.20;99.90
6843;DHT22;3460;52.028;8.916;2022-11-02T15:33:27;13.10;99.90
6843;DHT22;3460;52.028;8.916;2022-11-02T15:35:59;13.00;99.90
6843;DHT22;3460;52.028;8.916;2022-11-02T15:38:28;12.90;99.90
6843;DHT22;3460;52.028;8.916;2022-11-02T15:41:04;12.90;99.90
6843;DHT22;3460;52.028;8.916;2022-11-02T15:43:45;12.80;99.90
6843;DHT22;3460;52.028;8.916;2022-11-02T15:46:24;12.70;99.90
6843;DHT22;3460;52.028;8.916;2022-11-02T15:48:57;12.70;99.90
6843;DHT22;3460;52.028;8.916;2022-11-02T15:51:33;12.60;99.90
6843;DHT22;3460;52.028;8.916;2022-11-02T15:54:24;12.50;99.90
6843;DHT22;3460;52.028;8.916;2022-11-02T15:57:06;12.30;99.90
6843;DHT22;3460;52.028;8.916;2022-11-02T16:02:40;12.20;99.90
6843;DHT22;3460;52.028;8.916;2022-11-02T16:05:16;12.10;99.90
6843;DHT22;3460;52.028;8.916;2022-11-02T16:07:45;12.00;99.90
6843;DHT22;3460;52.028;8.916;2022-11-02T16:10:22;11.90;99.90
6843;DHT22;3460;52.028;8.916;2022-11-02T16:12:58;11.90;99.90
6843;DHT22;3460;52.028;8.916;2022-11-02T16:15:26;11.70;99.90
6843;DHT22;3460;52.028;8.916;2022-11-02T16:17:52;11.60;99.90
6843;DHT22;3460;52.028;8.916;2022-11-02T16:20:21;11.60;99.90
6843;DHT22;3460;52.028;8.916;2022-11-02T16:22:50;11.50;99.90
6843;DHT22;3460;52.028;8.916;2022-11-02T16:25:25;11.40;99.90
6843;DHT22;3460;52.028;8.916;2022-11-02T16:27:55;11.40;99.90
6843;DHT22;3460;52.028;8.916;2022-11-02T16:30:22;11.30;99.90
6843;DHT22;3460;52.028;8.916;2022-11-02T16:32:52;11.40;99.90
6843;DHT22;3460;52.028;8.916;2022-11-02T16:35:24;11.30;99.90
6843;DHT22;3460;52.028;8.916;2022-11-02T16:37:51;11.30;99.90
6843;DHT22;3460;52.028;8.916;2022-11-02T16:40:20;11.20;99.90
6843;DHT22;3460;52.028;8.916;2022-11-02T16:42:48;11.20;99.90